Flight Track Log - Related Links

Times and Time Zones

All times are in EDT time to prevent confusion due to time zone crossing. See the AWE1940 flight status page for this flight to view local times or setup timezone preferences in your user account.

Time Position Orientation Groundspeed Altitude Reporting Facility
EDT Latitude Longitude Course Direction KTS MPH feet Rate Location/Type
Fri 10:42:41 PM 35.1739 -80.9286 165° South 181 208 2,200  Level Atlanta Center
Fri 10:43:41 PM 35.1228 -80.8900 148° Southeast 243 280 4,200 2,231 Climbing Atlanta Center
Fri 10:44:42 PM 35.0939 -80.8175 116° Southeast 279 321 6,700 2,389 Climbing Atlanta Center
Fri 10:45:00 PM 35.2599 -80.5239 30° Northeast  Level FlightAware Approximate
Fri 10:45:34 PM 35.1064 -80.7408 79° East 306 352 8,700  Level Atlanta Center
Fri 10:46:00 PM 35.3423 -80.4329 72° East  Level FlightAware Approximate
Fri 10:46:34 PM 35.1561 -80.6500 56° Northeast 301 346 10,500  Level Atlanta Center
Fri 10:47:00 PM 35.3807 -80.2871 72° East  Level FlightAware Approximate
Fri 10:47:34 PM 35.2178 -80.5381 56° Northeast 338 389 12,200  Level Atlanta Center
Fri 10:48:34 PM 35.2792 -80.4286 55° Northeast 375 432 14,600 2,350 Climbing Atlanta Center
Fri 10:49:34 PM 35.3425 -80.3114 56° Northeast 395 455 16,900 2,207 Climbing Atlanta Center
Fri 10:51:47 PM 35.4553 -80.0544 62° Northeast 406 467 21,700 2,073 Climbing Washington Center
Fri 10:52:45 PM 35.4917 -79.9136 72° East 412 474 23,500 1,678 Climbing Washington Center
Fri 10:53:45 PM 35.5283 -79.7650 73° East 432 497 25,000 1,500 Climbing Washington Center
Fri 10:54:45 PM 35.5758 -79.5911 71° East 466 536 26,500 1,636 Climbing Washington Center
Fri 10:55:46 PM 35.6144 -79.4372 73° East 478 550 28,300 1,672 Climbing Washington Center
Fri 10:56:47 PM 35.6667 -79.3042 64° Northeast 473 544 29,900 1,587 Climbing Washington Center
Fri 10:57:47 PM 35.7250 -79.1639 63° Northeast 468 539 31,500 950 Climbing Washington Center
Fri 10:58:47 PM 35.7839 -79.0128 64° Northeast 476 548 31,800 814 Climbing Washington Center
Fri 10:59:45 PM 35.8508 -78.8492 63° Northeast 482 555 33,100 1,261 Climbing Washington Center
Fri 11:00:46 PM 35.9175 -78.6981 61° Northeast 482 555 34,300 942 Climbing Washington Center
Fri 11:01:46 PM 35.9881 -78.5569 58° Northeast 477 549 35,000 350 Climbing Washington Center
Fri 11:02:46 PM 36.0561 -78.4131 60° Northeast 477 549 35,000  Level Washington Center
Fri 11:03:47 PM 36.1239 -78.2714 59° Northeast 477 549 35,000  Level Washington Center
Fri 11:04:45 PM 36.1939 -78.1272 59° Northeast 477 549 35,000  Level Washington Center
Fri 11:05:47 PM 36.2617 -77.9850 59° Northeast 477 549 35,000  Level Washington Center
Fri 11:06:47 PM 36.3269 -77.8428 60° Northeast 477 549 35,000  Level Washington Center
Fri 11:07:45 PM 36.3961 -77.7003 59° Northeast 477 549 35,000  Level Washington Center
Fri 11:08:45 PM 36.4569 -77.5597 62° Northeast 477 549 35,000  Level Washington Center
Fri 11:09:46 PM 36.5239 -77.4219 59° Northeast 477 549 35,000  Level Washington Center
Fri 11:10:47 PM 36.5908 -77.2761 60° Northeast 476 548 35,000  Level Washington Center
Fri 11:11:45 PM 36.6553 -77.1350 60° Northeast 476 548 35,000  Level Washington Center
Fri 11:12:46 PM 36.7300 -76.9992 56° Northeast 476 548 35,000  Level Washington Center
Fri 11:13:45 PM 36.8353 -76.8997 37° Northeast 460 529 35,000  Level Washington Center
Fri 11:14:47 PM 36.9406 -76.8056 36° Northeast 460 529 35,000  Level Washington Center
Fri 11:15:45 PM 37.0375 -76.7186 36° Northeast 467 537 35,000  Level Washington Center
Fri 11:16:46 PM 37.1425 -76.6211 36° Northeast 467 537 35,000  Level Washington Center
Fri 11:17:46 PM 37.2497 -76.5258 35° Northeast 467 537 35,000  Level Washington Center
Fri 11:18:47 PM 37.3569 -76.4306 35° Northeast 467 537 35,000  Level Washington Center
Fri 11:19:46 PM 37.4639 -76.3322 36° Northeast 467 537 35,000  Level Washington Center
Fri 11:20:46 PM 37.5686 -76.2336 37° Northeast 472 543 35,000 -50 Level Washington Center
Fri 11:21:45 PM 37.6881 -76.1325 34° Northeast 472 543 34,900 -50 Descending Washington Center
Fri 11:22:45 PM 37.7719 -76.0517 37° Northeast 472 543 34,900 50 Level Washington Center
Fri 11:23:46 PM 37.8933 -75.9311 38° Northeast 472 543 35,000 49 Climbing Washington Center
Fri 11:24:47 PM 37.9978 -75.8342 36° Northeast 467 537 35,000  Level Washington Center
Fri 11:25:45 PM 38.1042 -75.7369 36° Northeast 462 532 35,000  Level Washington Center
Fri 11:26:45 PM 38.2064 -75.6394 37° Northeast 456 525 35,000  Level Washington Center
Fri 11:27:46 PM 38.3086 -75.5414 37° Northeast 456 525 35,000 -49 Level Washington Center
Fri 11:28:47 PM 38.4169 -75.4831 23° Northeast 450 518 34,900 -50 Descending Washington Center
Fri 11:29:45 PM 38.5358 -75.4350 18° North 450 518 34,900  Level Washington Center
Fri 11:30:47 PM 38.6544 -75.3817 19° North 445 512 34,900  Level Washington Center
Fri 11:31:44 PM 38.7753 -75.3308 18° North 445 512 34,900  Level Washington Center
Fri 11:32:45 PM 38.8961 -75.2850 16° North 445 512 34,900  Level Washington Center
Fri 11:33:45 PM 39.0147 -75.2336 19° North 445 512 34,900  Level Washington Center
Fri 11:34:46 PM 39.1336 -75.1850 18° North 445 512 34,900  Level Washington Center
Fri 11:35:47 PM 39.2564 -75.1358 17° North 445 512 34,900  Level Washington Center
Fri 11:36:47 PM 39.3644 -75.0547 30° Northeast 445 512 34,900  Level Washington Center
Fri 11:37:44 PM 39.4681 -74.9492 38° Northeast 451 519 34,900  Level Washington Center
Fri 11:39:17 PM 39.6367 -74.7847 37° Northeast 476 548 34,900  Level New York Center
Fri 11:40:18 PM 39.7403 -74.6800 38° Northeast 476 548 34,900  Level New York Center
Fri 11:41:17 PM 39.8436 -74.5775 37° Northeast 476 548 34,900  Level New York Center
Fri 11:42:18 PM 39.9297 -74.4956 36° Northeast 476 548 34,900  Level New York Center
Fri 11:43:17 PM 40.0533 -74.4100 28° Northeast 459 528 34,900  Level New York Center
Fri 11:44:17 PM 40.1750 -74.3867 North 443 510 34,900  Level New York Center
Fri 11:45:18 PM 40.3008 -74.3606 North 443 510 34,900  Level New York Center
Fri 11:46:18 PM 40.4225 -74.3314 10° North 443 510 34,900  Level New York Center
Fri 11:47:19 PM 40.5419 -74.3050 10° North 443 510 34,900  Level New York Center
Fri 11:48:17 PM 40.6636 -74.2811 North 443 510 34,900  Level New York Center
Fri 11:49:17 PM 40.7853 -74.2489 11° North 443 510 34,900  Level New York Center
Fri 11:50:17 PM 40.9089 -74.2253 North 443 510 34,900 -850 Level New York Center
Fri 11:51:17 PM 41.0286 -74.1956 11° North 438 504 33,200 -2,950 Descending New York Center
Fri 11:52:17 PM 41.1711 -74.1669 North 452 520 29,000 -2,274 Descending New York Center
Fri 11:54:27 PM 41.4378 -74.1069 10° North 458 527 26,000 -1,011 Descending Boston Center
Fri 11:55:27 PM 41.5800 -74.0775 North 473 544 25,800 -1,650 Descending Boston Center
Fri 11:56:27 PM 41.7053 -74.0472 10° North 462 532 22,700 -2,650 Descending Boston Center
Fri 11:57:27 PM 41.8244 -74.0225 North 446 513 20,500 -1,582 Descending Boston Center
Fri 11:58:17 PM 41.9292 -73.9972 10° North 429 494 19,800 -1,613 Descending Boston Center
Fri 11:59:00 PM 42.0064 -73.9794 10° North 420 483 18,000 -2,143 Descending Boston Center
Fri 11:59:27 PM 42.0442 -73.9692 11° North 424 488 17,300 -2,273 Descending Boston Center
Sat 12:00:06 AM 42.1278 -73.9489 10° North 410 472 15,500 -2,600 Descending Boston Center
Sat 12:00:27 AM 42.1675 -73.9414 North 405 466 14,700 -2,361 Descending Boston Center
Sat 12:01:07 AM 42.2342 -73.9431 359° North 375 432 13,100 -2,500 Descending Boston Center
Sat 12:01:27 AM 42.2611 -73.9408 North 381 438 12,200 -2,164 Descending Boston Center
Sat 12:02:08 AM 42.3425 -73.9456 358° North 353 406 10,900 -1,600 Descending Boston Center
Sat 12:02:27 AM 42.3656 -73.9433 North 344 396 10,600 -1,400 Descending Boston Center
Sat 12:03:08 AM 42.4281 -73.9450 359° North 299 344 9,500 -1,600 Descending Boston Center
Sat 12:03:27 AM 42.4508 -73.9456 359° North 315 362 9,000 -1,869 Descending Boston Center
Sat 12:04:09 AM 42.5114 -73.9469 359° North 294 338 7,600 -1,900 Descending Boston Center
Sat 12:04:27 AM 42.5364 -73.9447 North 301 346 7,100 -1,556 Descending Boston Center
Sat 12:05:03 AM 42.5842 -73.9458 359° North 303 349 6,200 -1,250 Descending Boston Center
Sat 12:05:39 AM 42.6197 -73.9467 359° North 301 346 5,600 -1,672 Descending Boston Center
Sat 12:06:04 AM 42.6717 -73.9453 North 296 341 4,500 -1,400 Descending Boston Center
Sat 12:06:39 AM 42.7175 -73.9464 359° North 295 339 4,200 -590 Descending Boston Center
Sat 12:07:05 AM 42.7511 -73.9414 North 271 312 3,900 -600 Descending Boston Center
Sat 12:07:39 AM 42.7906 -73.9425 359° North 277 319 3,600 -600 Descending Boston Center
Sat 12:08:05 AM 42.8197 -73.9431 359° North 226 260 3,300 -600 Descending Boston Center
Sat 12:08:39 AM 42.8511 -73.9411 North 248 285 3,000 -269 Descending Boston Center
Sat 12:09:12 AM 42.8844 -73.9361 North 209 241 3,000  Level Boston Center
Sat 12:09:39 AM 42.8994 -73.9167 44° Northeast 205 236 3,000 -492 Level Boston Center
Sat 12:10:13 AM 42.9125 -73.8744 67° East 201 231 2,500 -700 Descending Boston Center
Sat 12:10:39 AM 42.9128 -73.8406 89° East 171 197 2,300 -500 Descending Boston Center
Sat 12:11:13 AM 42.8964 -73.8175 134° Southeast 152 175 2,000 -500 Descending Boston Center
Sat 12:11:39 AM 42.8797 -73.8169 179° South 123 142 1,800 -295 Descending Boston Center
Sat 12:12:14 AM 42.8589 -73.8139 174° South 126 145 1,700 -100 Descending Boston Center
Sat 12:12:39 AM 42.8528 -73.8108 160° South 123 142 1,700 -222 Level Boston Center
Sat 12:13:08 AM 42.8297 -73.8131 184° South 116 133 1,500 -414 Descending Boston Center

Login

Don't have an account? Register now (free) for customized features, flight alerts, and more!